sensor_id;sensor_type;location;lat;lon;timestamp;pressure;altitude;pressure_sealevel;temperature;humidity
64095;BME280;50353;51.420;5.682;2023-12-28T00:00:37;100689.59;;;10.40;100.00
64095;BME280;50353;51.420;5.682;2023-12-28T00:03:03;100686.38;;;10.35;100.00
64095;BME280;50353;51.420;5.682;2023-12-28T00:05:28;100699.81;;;10.46;100.00
64095;BME280;50353;51.420;5.682;2023-12-28T00:07:54;100692.25;;;10.40;100.00
64095;BME280;50353;51.420;5.682;2023-12-28T00:10:26;100696.38;;;10.44;100.00
64095;BME280;50353;51.420;5.682;2023-12-28T00:12:52;100696.59;;;10.55;100.00
64095;BME280;50353;51.420;5.682;2023-12-28T00:15:17;100698.94;;;10.45;100.00
64095;BME280;50353;51.420;5.682;2023-12-28T00:17:42;100692.13;;;10.41;100.00
64095;BME280;50353;51.420;5.682;2023-12-28T00:20:08;100698.38;;;10.40;100.00
64095;BME280;50353;51.420;5.682;2023-12-28T00:22:34;100699.53;;;10.36;100.00
64095;BME280;50353;51.420;5.682;2023-12-28T00:25:03;100712.22;;;10.29;100.00
64095;BME280;50353;51.420;5.682;2023-12-28T00:27:28;100728.66;;;10.35;100.00
64095;BME280;50353;51.420;5.682;2023-12-28T00:29:53;100723.38;;;10.49;100.00
64095;BME280;50353;51.420;5.682;2023-12-28T00:32:19;100721.31;;;10.40;100.00
64095;BME280;50353;51.420;5.682;2023-12-28T00:34:44;100732.16;;;10.35;100.00
64095;BME280;50353;51.420;5.682;2023-12-28T00:37:09;100737.16;;;10.40;100.00
64095;BME280;50353;51.420;5.682;2023-12-28T00:39:35;100728.78;;;10.47;100.00
64095;BME280;50353;51.420;5.682;2023-12-28T00:42:00;100727.84;;;10.48;100.00
64095;BME280;50353;51.420;5.682;2023-12-28T00:44:26;100741.78;;;10.51;100.00
64095;BME280;50353;51.420;5.682;2023-12-28T00:46:51;100741.50;;;10.41;100.00
64095;BME280;50353;51.420;5.682;2023-12-28T00:49:16;100743.59;;;10.50;100.00
64095;BME280;50353;51.420;5.682;2023-12-28T00:51:42;100743.84;;;10.31;100.00
64095;BME280;50353;51.420;5.682;2023-12-28T00:54:07;100744.78;;;10.30;100.00
64095;BME280;50353;51.420;5.682;2023-12-28T00:56:32;100753.41;;;10.48;100.00
64095;BME280;50353;51.420;5.682;2023-12-28T00:58:58;100753.78;;;10.42;100.00
64095;BME280;50353;51.420;5.682;2023-12-28T01:01:23;100765.78;;;10.47;100.00
64095;BME280;50353;51.420;5.682;2023-12-28T01:03:48;100767.50;;;10.32;100.00
64095;BME280;50353;51.420;5.682;2023-12-28T01:06:14;100762.75;;;10.39;100.00
64095;BME280;50353;51.420;5.682;2023-12-28T01:08:39;100757.47;;;10.39;100.00
64095;BME280;50353;51.420;5.682;2023-12-28T01:11:04;100761.63;;;10.43;100.00
64095;BME280;50353;51.420;5.682;2023-12-28T01:13:30;100767.63;;;10.31;100.00
64095;BME280;50353;51.420;5.682;2023-12-28T01:15:56;100755.84;;;10.51;100.00
64095;BME280;50353;51.420;5.682;2023-12-28T01:18:21;100765.47;;;10.38;100.00
64095;BME280;50353;51.420;5.682;2023-12-28T01:20:47;100773.91;;;10.44;100.00
64095;BME280;50353;51.420;5.682;2023-12-28T01:23:12;100762.22;;;10.32;100.00
64095;BME280;50353;51.420;5.682;2023-12-28T01:25:37;100757.88;;;10.31;100.00
64095;BME280;50353;51.420;5.682;2023-12-28T01:28:03;100765.72;;;10.33;100.00
64095;BME280;50353;51.420;5.682;2023-12-28T01:30:28;100768.13;;;10.38;100.00
64095;BME280;50353;51.420;5.682;2023-12-28T01:32:54;100770.78;;;10.38;100.00
64095;BME280;50353;51.420;5.682;2023-12-28T01:35:19;100759.56;;;10.48;100.00
64095;BME280;50353;51.420;5.682;2023-12-28T01:37:45;100766.44;;;10.21;100.00
64095;BME280;50353;51.420;5.682;2023-12-28T01:40:11;100782.50;;;10.32;100.00
64095;BME280;50353;51.420;5.682;2023-12-28T01:42:36;100786.84;;;10.33;100.00
64095;BME280;50353;51.420;5.682;2023-12-28T01:45:01;100797.63;;;10.30;100.00
64095;BME280;50353;51.420;5.682;2023-12-28T01:47:28;100791.38;;;10.31;100.00
64095;BME280;50353;51.420;5.682;2023-12-28T01:49:54;100791.00;;;10.23;100.00
64095;BME280;50353;51.420;5.682;2023-12-28T01:52:20;100795.06;;;10.28;100.00
64095;BME280;50353;51.420;5.682;2023-12-28T01:54:46;100795.91;;;10.29;100.00
64095;BME280;50353;51.420;5.682;2023-12-28T01:57:13;100801.56;;;10.23;100.00
64095;BME280;50353;51.420;5.682;2023-12-28T01:59:39;100794.13;;;10.29;100.00
64095;BME280;50353;51.420;5.682;2023-12-28T02:02:05;100793.59;;;10.39;100.00
64095;BME280;50353;51.420;5.682;2023-12-28T02:04:31;100795.91;;;10.29;100.00
64095;BME280;50353;51.420;5.682;2023-12-28T02:06:58;100809.88;;;10.31;100.00
64095;BME280;50353;51.420;5.682;2023-12-28T02:09:24;100802.31;;;10.25;100.00
64095;BME280;50353;51.420;5.682;2023-12-28T02:11:50;100810.72;;;10.31;100.00
64095;BME280;50353;51.420;5.682;2023-12-28T02:14:15;100810.78;;;10.15;100.00
64095;BME280;50353;51.420;5.682;2023-12-28T02:16:47;100817.50;;;10.21;100.00
64095;BME280;50353;51.420;5.682;2023-12-28T02:19:19;100810.81;;;10.30;100.00
64095;BME280;50353;51.420;5.682;2023-12-28T02:21:49;100814.59;;;10.26;100.00
64095;BME280;50353;51.420;5.682;2023-12-28T02:24:15;100805.13;;;10.22;100.00
64095;BME280;50353;51.420;5.682;2023-12-28T02:26:40;100809.50;;;10.23;100.00
64095;BME280;50353;51.420;5.682;2023-12-28T02:29:05;100811.91;;;10.11;100.00
64095;BME280;50353;51.420;5.682;2023-12-28T02:31:36;100798.63;;;10.13;100.00
64095;BME280;50353;51.420;5.682;2023-12-28T02:34:12;100811.84;;;10.27;100.00
64095;BME280;50353;51.420;5.682;2023-12-28T02:36:41;100798.03;;;10.08;100.00
64095;BME280;50353;51.420;5.682;2023-12-28T02:39:11;100802.78;;;10.17;100.00
64095;BME280;50353;51.420;5.682;2023-12-28T02:41:39;100797.75;;;9.98;100.00
64095;BME280;50353;51.420;5.682;2023-12-28T02:44:05;100810.97;;;10.12;100.00
64095;BME280;50353;51.420;5.682;2023-12-28T02:46:30;100807.56;;;10.10;100.00
64095;BME280;50353;51.420;5.682;2023-12-28T02:48:56;100801.03;;;10.02;100.00
64095;BME280;50353;51.420;5.682;2023-12-28T02:51:22;100809.53;;;10.07;100.00
64095;BME280;50353;51.420;5.682;2023-12-28T02:53:47;100808.69;;;10.06;100.00
64095;BME280;50353;51.420;5.682;2023-12-28T02:56:13;100800.19;;;10.01;100.00
64095;BME280;50353;51.420;5.682;2023-12-28T02:58:38;100793.41;;;10.11;100.00
64095;BME280;50353;51.420;5.682;2023-12-28T03:01:03;100785.09;;;10.03;100.00
64095;BME280;50353;51.420;5.682;2023-12-28T03:03:29;100776.78;;;9.95;100.00
64095;BME280;50353;51.420;5.682;2023-12-28T03:05:54;100781.03;;;9.97;100.00
64095;BME280;50353;51.420;5.682;2023-12-28T03:08:19;100792.28;;;10.15;100.00
64095;BME280;50353;51.420;5.682;2023-12-28T03:10:45;100794.91;;;10.01;100.00
64095;BME280;50353;51.420;5.682;2023-12-28T03:13:10;100790.38;;;10.03;100.00
64095;BME280;50353;51.420;5.682;2023-12-28T03:15:35;100776.13;;;10.06;100.00
64095;BME280;50353;51.420;5.682;2023-12-28T03:18:01;100789.44;;;10.04;100.00
64095;BME280;50353;51.420;5.682;2023-12-28T03:20:26;100792.03;;;10.20;100.00
64095;BME280;50353;51.420;5.682;2023-12-28T03:22:51;100791.16;;;10.05;100.00
64095;BME280;50353;51.420;5.682;2023-12-28T03:25:17;100782.50;;;10.18;100.00
64095;BME280;50353;51.420;5.682;2023-12-28T03:27:42;100794.19;;;10.13;100.00
64095;BME280;50353;51.420;5.682;2023-12-28T03:30:08;100780.19;;;9.97;100.00
64095;BME280;50353;51.420;5.682;2023-12-28T03:32:33;100782.44;;;10.03;100.00
64095;BME280;50353;51.420;5.682;2023-12-28T03:34:58;100790.34;;;9.89;100.00
64095;BME280;50353;51.420;5.682;2023-12-28T03:37:24;100785.47;;;9.97;100.00
64095;BME280;50353;51.420;5.682;2023-12-28T03:39:49;100781.03;;;9.97;100.00
64095;BME280;50353;51.420;5.682;2023-12-28T03:42:14;100787.19;;;9.98;100.00
64095;BME280;50353;51.420;5.682;2023-12-28T03:44:40;100795.44;;;9.92;100.00
64095;BME280;50353;51.420;5.682;2023-12-28T03:47:06;100800.53;;;9.95;100.00
64095;BME280;50353;51.420;5.682;2023-12-28T03:49:31;100790.75;;;9.97;100.00
64095;BME280;50353;51.420;5.682;2023-12-28T03:51:57;100794.91;;;10.01;100.00
64095;BME280;50353;51.420;5.682;2023-12-28T03:54:22;100806.22;;;10.03;100.00
64095;BME280;50353;51.420;5.682;2023-12-28T03:56:47;100789.25;;;10.07;100.00
64095;BME280;50353;51.420;5.682;2023-12-28T03:59:13;100797.16;;;10.07;100.00
64095;BME280;50353;51.420;5.682;2023-12-28T04:01:40;100796.47;;;9.89;100.00
64095;BME280;50353;51.420;5.682;2023-12-28T04:04:05;100803.56;;;10.03;100.00
64095;BME280;50353;51.420;5.682;2023-12-28T04:06:31;100794.91;;;10.01;100.00
64095;BME280;50353;51.420;5.682;2023-12-28T04:08:56;100799.81;;;10.07;100.00
64095;BME280;50353;51.420;5.682;2023-12-28T04:11:22;100795.00;;;10.00;100.00
64095;BME280;50353;51.420;5.682;2023-12-28T04:13:47;100800.19;;;10.01;100.00
64095;BME280;50353;51.420;5.682;2023-12-28T04:16:16;100798.84;;;9.94;100.00
64095;BME280;50353;51.420;5.682;2023-12-28T04:18:42;100807.72;;;9.93;100.00
64095;BME280;50353;51.420;5.682;2023-12-28T04:21:11;100807.72;;;9.93;100.00
64095;BME280;50353;51.420;5.682;2023-12-28T04:23:38;100805.28;;;10.04;100.00
64095;BME280;50353;51.420;5.682;2023-12-28T04:26:03;100808.84;;;10.03;100.00
64095;BME280;50353;51.420;5.682;2023-12-28T04:28:29;100809.25;;;10.11;100.00
64095;BME280;50353;51.420;5.682;2023-12-28T04:30:55;100806.47;;;10.14;100.00
64095;BME280;50353;51.420;5.682;2023-12-28T04:33:20;100793.16;;;10.16;100.00
64095;BME280;50353;51.420;5.682;2023-12-28T04:35:45;100803.81;;;10.14;100.00
64095;BME280;50353;51.420;5.682;2023-12-28T04:38:11;100796.03;;;10.11;100.00
64095;BME280;50353;51.420;5.682;2023-12-28T04:40:37;100793.91;;;10.18;100.00
64095;BME280;50353;51.420;5.682;2023-12-28T04:43:02;100793.41;;;10.11;100.00
64095;BME280;50353;51.420;5.682;2023-12-28T04:45:28;100777.66;;;10.10;100.00
64095;BME280;50353;51.420;5.682;2023-12-28T04:47:53;100786.16;;;10.15;100.00
64095;BME280;50353;51.420;5.682;2023-12-28T04:50:18;100782.94;;;10.10;100.00
64095;BME280;50353;51.420;5.682;2023-12-28T04:52:44;100788.91;;;10.13;100.00
64095;BME280;50353;51.420;5.682;2023-12-28T04:55:09;100791.09;;;10.21;100.00
64095;BME280;50353;51.420;5.682;2023-12-28T04:57:34;100787.09;;;10.14;100.00
64095;BME280;50353;51.420;5.682;2023-12-28T05:00:00;100795.31;;;10.09;100.00
64095;BME280;50353;51.420;5.682;2023-12-28T05:02:25;100791.97;;;10.06;100.00
64095;BME280;50353;51.420;5.682;2023-12-28T05:04:50;100789.09;;;10.10;100.00
64095;BME280;50353;51.420;5.682;2023-12-28T05:07:16;100800.88;;;10.19;100.00
64095;BME280;50353;51.420;5.682;2023-12-28T05:09:41;100789.94;;;10.11;100.00
64095;BME280;50353;51.420;5.682;2023-12-28T05:12:07;100803.22;;;10.09;100.00
64095;BME280;50353;51.420;5.682;2023-12-28T05:14:32;100796.44;;;10.05;100.00
64095;BME280;50353;51.420;5.682;2023-12-28T05:16:58;100807.00;;;10.20;100.00
64095;BME280;50353;51.420;5.682;2023-12-28T05:19:23;100809.00;;;10.16;100.00
64095;BME280;50353;51.420;5.682;2023-12-28T05:21:48;100813.41;;;10.15;100.00
64095;BME280;50353;51.420;5.682;2023-12-28T05:24:14;100819.66;;;10.14;100.00
64095;BME280;50353;51.420;5.682;2023-12-28T05:26:39;100821.28;;;10.31;100.00
64095;BME280;50353;51.420;5.682;2023-12-28T05:29:05;100813.16;;;10.20;100.00
64095;BME280;50353;51.420;5.682;2023-12-28T05:31:30;100814.78;;;10.23;100.00
64095;BME280;50353;51.420;5.682;2023-12-28T05:33:56;100824.66;;;10.19;100.00
64095;BME280;50353;51.420;5.682;2023-12-28T05:36:23;100815.81;;;10.20;100.00
64095;BME280;50353;51.420;5.682;2023-12-28T05:38:48;100818.16;;;10.25;100.00
64095;BME280;50353;51.420;5.682;2023-12-28T05:41:14;100819.59;;;10.30;100.00
64095;BME280;50353;51.420;5.682;2023-12-28T05:43:39;100812.69;;;10.28;100.00
64095;BME280;50353;51.420;5.682;2023-12-28T05:46:05;100822.13;;;10.18;100.00
64095;BME280;50353;51.420;5.682;2023-12-28T05:48:30;100808.53;;;10.24;100.00
64095;BME280;50353;51.420;5.682;2023-12-28T05:50:58;100808.47;;;10.25;100.00
64095;BME280;50353;51.420;5.682;2023-12-28T05:53:24;100795.88;;;10.14;100.00
64095;BME280;50353;51.420;5.682;2023-12-28T05:55:50;100802.09;;;10.13;100.00
64095;BME280;50353;51.420;5.682;2023-12-28T05:58:15;100807.00;;;10.20;100.00
64095;BME280;50353;51.420;5.682;2023-12-28T06:00:40;100806.16;;;10.19;100.00
64095;BME280;50353;51.420;5.682;2023-12-28T06:03:06;100811.16;;;10.24;100.00
64095;BME280;50353;51.420;5.682;2023-12-28T06:05:32;100809.50;;;10.23;100.00
64095;BME280;50353;51.420;5.682;2023-12-28T06:07:57;100816.38;;;10.25;100.00
64095;BME280;50353;51.420;5.682;2023-12-28T06:10:23;100819.50;;;10.32;100.00
64095;BME280;50353;51.420;5.682;2023-12-28T06:12:49;100826.00;;;10.26;100.00
64095;BME280;50353;51.420;5.682;2023-12-28T06:15:14;100819.16;;;10.38;100.00
64095;BME280;50353;51.420;5.682;2023-12-28T06:17:40;100820.09;;;10.07;100.00
64095;BME280;50353;51.420;5.682;2023-12-28T06:20:05;100814.94;;;10.20;100.00
64095;BME280;50353;51.420;5.682;2023-12-28T06:22:31;100825.44;;;10.21;100.00
64095;BME280;50353;51.420;5.682;2023-12-28T06:24:57;100819.47;;;10.18;100.00
64095;BME280;50353;51.420;5.682;2023-12-28T06:27:22;100836.06;;;10.20;100.00
64095;BME280;50353;51.420;5.682;2023-12-28T06:29:49;100825.69;;;10.17;100.00
64095;BME280;50353;51.420;5.682;2023-12-28T06:32:14;100829.53;;;10.11;100.00
64095;BME280;50353;51.420;5.682;2023-12-28T06:34:39;100833.44;;;10.20;100.00
64095;BME280;50353;51.420;5.682;2023-12-28T06:37:05;100829.75;;;10.38;100.00
64095;BME280;50353;51.420;5.682;2023-12-28T06:39:30;100836.66;;;10.25;100.00
64095;BME280;50353;51.420;5.682;2023-12-28T06:41:55;100835.03;;;10.22;100.00
64095;BME280;50353;51.420;5.682;2023-12-28T06:44:21;100836.22;;;10.32;100.00
64095;BME280;50353;51.420;5.682;2023-12-28T06:46:46;100835.78;;;10.40;100.00
64095;BME280;50353;51.420;5.682;2023-12-28T06:49:11;100836.72;;;10.39;100.00
64095;BME280;50353;51.420;5.682;2023-12-28T06:51:37;100841.50;;;10.32;100.00
64095;BME280;50353;51.420;5.682;2023-12-28T06:54:02;100839.00;;;10.45;100.00
64095;BME280;50353;51.420;5.682;2023-12-28T06:56:28;100846.91;;;10.45;100.00
64095;BME280;50353;51.420;5.682;2023-12-28T06:58:53;100830.25;;;10.59;100.00
64095;BME280;50353;51.420;5.682;2023-12-28T07:01:19;100840.78;;;10.45;100.00
64095;BME280;50353;51.420;5.682;2023-12-28T07:03:44;100854.84;;;10.45;100.00
64095;BME280;50353;51.420;5.682;2023-12-28T07:06:09;100853.53;;;10.38;100.00
64095;BME280;50353;51.420;5.682;2023-12-28T07:08:35;100849.56;;;10.45;100.00
64095;BME280;50353;51.420;5.682;2023-12-28T07:11:01;100853.72;;;10.49;100.00
64095;BME280;50353;51.420;5.682;2023-12-28T07:13:27;100864.69;;;10.43;100.00
64095;BME280;50353;51.420;5.682;2023-12-28T07:15:52;100849.94;;;10.54;100.00
64095;BME280;50353;51.420;5.682;2023-12-28T07:18:18;100864.88;;;10.40;100.00
64095;BME280;50353;51.420;5.682;2023-12-28T07:20:43;100874.22;;;10.30;100.00
64095;BME280;50353;51.420;5.682;2023-12-28T07:23:09;100867.50;;;10.40;100.00
64095;BME280;50353;51.420;5.682;2023-12-28T07:25:34;100872.34;;;10.32;100.00
64095;BME280;50353;51.420;5.682;2023-12-28T07:28:00;100872.13;;;10.51;100.00
64095;BME280;50353;51.420;5.682;2023-12-28T07:30:25;100876.63;;;10.35;100.00
64095;BME280;50353;51.420;5.682;2023-12-28T07:32:50;100881.13;;;10.32;100.00
64095;BME280;50353;51.420;5.682;2023-12-28T07:35:16;100881.84;;;10.20;100.00
64095;BME280;50353;51.420;5.682;2023-12-28T07:37:41;100880.53;;;10.27;100.00
64095;BME280;50353;51.420;5.682;2023-12-28T07:40:07;100886.50;;;10.31;100.00
64095;BME280;50353;51.420;5.682;2023-12-28T07:42:32;100876.75;;;10.17;100.00
64095;BME280;50353;51.420;5.682;2023-12-28T07:44:58;100880.13;;;10.19;100.00
64095;BME280;50353;51.420;5.682;2023-12-28T07:47:23;100879.28;;;10.19;100.00
64095;BME280;50353;51.420;5.682;2023-12-28T07:49:49;100885.34;;;10.05;100.00
64095;BME280;50353;51.420;5.682;2023-12-28T07:52:14;100898.56;;;10.05;100.00
64095;BME280;50353;51.420;5.682;2023-12-28T07:54:39;100905.44;;;10.23;100.00
64095;BME280;50353;51.420;5.682;2023-12-28T07:57:05;100907.81;;;10.28;100.00
64095;BME280;50353;51.420;5.682;2023-12-28T07:59:30;100909.69;;;10.26;100.00
64095;BME280;50353;51.420;5.682;2023-12-28T08:01:56;100908.44;;;10.17;100.00
64095;BME280;50353;51.420;5.682;2023-12-28T08:04:22;100912.34;;;10.10;100.00
64095;BME280;50353;51.420;5.682;2023-12-28T08:06:47;100910.22;;;10.17;100.00
64095;BME280;50353;51.420;5.682;2023-12-28T08:09:12;100927.78;;;10.18;100.00
64095;BME280;50353;51.420;5.682;2023-12-28T08:11:38;100919.75;;;10.19;100.00
64095;BME280;50353;51.420;5.682;2023-12-28T08:14:03;100930.06;;;10.24;100.00
64095;BME280;50353;51.420;5.682;2023-12-28T08:16:29;100925.31;;;10.14;100.00
64095;BME280;50353;51.420;5.682;2023-12-28T08:18:54;100931.75;;;10.25;100.00
64095;BME280;50353;51.420;5.682;2023-12-28T08:21:19;100934.69;;;10.36;100.00
64095;BME280;50353;51.420;5.682;2023-12-28T08:23:45;100930.81;;;10.26;100.00
64095;BME280;50353;51.420;5.682;2023-12-28T08:26:10;100928.59;;;10.34;100.00
64095;BME280;50353;51.420;5.682;2023-12-28T08:28:36;100927.91;;;10.30;100.00
64095;BME280;50353;51.420;5.682;2023-12-28T08:31:02;100921.00;;;10.28;100.00
64095;BME280;50353;51.420;5.682;2023-12-28T08:33:27;100915.63;;;10.45;100.00
64095;BME280;50353;51.420;5.682;2023-12-28T08:35:52;100915.81;;;10.42;100.00
64095;BME280;50353;51.420;5.682;2023-12-28T08:38:18;100926.19;;;10.45;100.00
64095;BME280;50353;51.420;5.682;2023-12-28T08:40:43;100932.50;;;10.43;100.00
64095;BME280;50353;51.420;5.682;2023-12-28T08:43:11;100932.28;;;10.62;100.00
64095;BME280;50353;51.420;5.682;2023-12-28T08:45:37;100934.41;;;10.41;100.00
64095;BME280;50353;51.420;5.682;2023-12-28T08:48:03;100927.81;;;10.48;100.00
64095;BME280;50353;51.420;5.682;2023-12-28T08:50:28;100934.53;;;10.54;100.00
64095;BME280;50353;51.420;5.682;2023-12-28T08:52:54;100942.75;;;10.49;100.00
64095;BME280;50353;51.420;5.682;2023-12-28T08:55:19;100947.25;;;10.47;100.00
64095;BME280;50353;51.420;5.682;2023-12-28T08:57:45;100948.34;;;10.59;100.00
64095;BME280;50353;51.420;5.682;2023-12-28T09:00:10;100955.88;;;10.51;100.00
64095;BME280;50353;51.420;5.682;2023-12-28T09:02:36;100960.81;;;10.57;100.00
64095;BME280;50353;51.420;5.682;2023-12-28T09:05:02;100972.03;;;10.60;100.00
64095;BME280;50353;51.420;5.682;2023-12-28T09:07:28;100965.94;;;10.44;100.00
64095;BME280;50353;51.420;5.682;2023-12-28T09:09:53;100962.88;;;10.52;100.00
64095;BME280;50353;51.420;5.682;2023-12-28T09:12:18;100962.34;;;10.61;100.00
64095;BME280;50353;51.420;5.682;2023-12-28T09:14:44;100975.22;;;10.51;100.00
64095;BME280;50353;51.420;5.682;2023-12-28T09:17:09;100971.81;;;10.49;100.00
64095;BME280;50353;51.420;5.682;2023-12-28T09:19:34;100977.31;;;10.60;100.00
64095;BME280;50353;51.420;5.682;2023-12-28T09:22:00;100985.00;;;10.65;100.00
64095;BME280;50353;51.420;5.682;2023-12-28T09:24:25;100992.66;;;10.70;100.00
64095;BME280;50353;51.420;5.682;2023-12-28T09:26:50;100991.53;;;10.74;100.00
64095;BME280;50353;51.420;5.682;2023-12-28T09:29:16;100986.63;;;10.68;100.00
64095;BME280;50353;51.420;5.682;2023-12-28T09:31:41;100985.25;;;10.60;100.00
64095;BME280;50353;51.420;5.682;2023-12-28T09:34:06;100996.41;;;10.65;100.00
64095;BME280;50353;51.420;5.682;2023-12-28T09:36:32;100986.69;;;10.66;100.00
64095;BME280;50353;51.420;5.682;2023-12-28T09:38:57;100993.44;;;10.72;100.00
64095;BME280;50353;51.420;5.682;2023-12-28T09:41:25;100981.59;;;10.63;100.00
64095;BME280;50353;51.420;5.682;2023-12-28T09:43:58;100992.16;;;10.63;100.00
64095;BME280;50353;51.420;5.682;2023-12-28T09:46:26;100986.47;;;10.55;100.00
64095;BME280;50353;51.420;5.682;2023-12-28T09:48:54;100988.19;;;10.56;100.00
64095;BME280;50353;51.420;5.682;2023-12-28T09:51:21;100986.53;;;10.69;100.00
64095;BME280;50353;51.420;5.682;2023-12-28T09:53:46;100986.75;;;10.80;100.00
64095;BME280;50353;51.420;5.682;2023-12-28T09:56:15;100999.03;;;10.96;100.00
64095;BME280;50353;51.420;5.682;2023-12-28T09:58:42;100988.84;;;11.04;100.00
64095;BME280;50353;51.420;5.682;2023-12-28T10:01:09;100987.00;;;11.64;100.00
64095;BME280;50353;51.420;5.682;2023-12-28T10:03:34;101000.53;;;11.45;100.00
64095;BME280;50353;51.420;5.682;2023-12-28T10:06:00;100994.78;;;10.93;100.00
64095;BME280;50353;51.420;5.682;2023-12-28T10:08:25;100995.13;;;11.03;100.00
64095;BME280;50353;51.420;5.682;2023-12-28T10:10:51;101000.94;;;10.94;100.00
64095;BME280;50353;51.420;5.682;2023-12-28T10:13:19;101005.38;;;10.93;100.00
64095;BME280;50353;51.420;5.682;2023-12-28T10:15:45;101007.25;;;10.91;100.00
64095;BME280;50353;51.420;5.682;2023-12-28T10:18:10;101004.34;;;10.96;100.00
64095;BME280;50353;51.420;5.682;2023-12-28T10:20:36;101013.06;;;11.12;100.00
64095;BME280;50353;51.420;5.682;2023-12-28T10:23:01;101006.19;;;11.10;100.00
64095;BME280;50353;51.420;5.682;2023-12-28T10:25:32;100984.63;;;11.16;100.00
64095;BME280;50353;51.420;5.682;2023-12-28T10:27:57;101004.47;;;11.23;100.00
64095;BME280;50353;51.420;5.682;2023-12-28T10:30:24;101012.13;;;11.13;100.00
64095;BME280;50353;51.420;5.682;2023-12-28T10:32:49;101003.94;;;11.18;100.00
64095;BME280;50353;51.420;5.682;2023-12-28T10:35:14;100994.94;;;11.21;100.00
64095;BME280;50353;51.420;5.682;2023-12-28T10:37:41;100999.09;;;11.10;100.00
64095;BME280;50353;51.420;5.682;2023-12-28T10:40:14;101006.19;;;11.10;100.00
64095;BME280;50353;51.420;5.682;2023-12-28T10:43:04;100992.28;;;11.06;100.00
64095;BME280;50353;51.420;5.682;2023-12-28T10:45:32;100999.28;;;11.07;100.00
64095;BME280;50353;51.420;5.682;2023-12-28T10:48:06;101002.75;;;11.08;100.00
64095;BME280;50353;51.420;5.682;2023-12-28T10:50:47;101002.84;;;11.06;100.00
64095;BME280;50353;51.420;5.682;2023-12-28T10:58:46;101002.47;;;11.12;100.00
64095;BME280;50353;51.420;5.682;2023-12-28T11:01:17;101005.13;;;11.12;100.00
64095;BME280;50353;51.420;5.682;2023-12-28T11:03:48;100993.41;;;11.16;100.00
64095;BME280;50353;51.420;5.682;2023-12-28T11:06:17;100988.34;;;11.28;100.00
64095;BME280;50353;51.420;5.682;2023-12-28T11:08:44;100981.34;;;11.27;100.00
64095;BME280;50353;51.420;5.682;2023-12-28T11:11:14;100980.75;;;11.22;100.00
64095;BME280;50353;51.420;5.682;2023-12-28T11:13:40;100986.72;;;11.40;100.00
64095;BME280;50353;51.420;5.682;2023-12-28T11:16:07;100982.56;;;11.36;100.00
64095;BME280;50353;51.420;5.682;2023-12-28T11:18:33;100972.81;;;11.50;100.00
64095;BME280;50353;51.420;5.682;2023-12-28T11:20:58;100979.53;;;11.27;100.00
64095;BME280;50353;51.420;5.682;2023-12-28T11:23:24;100976.16;;;11.25;100.00
64095;BME280;50353;51.420;5.682;2023-12-28T11:25:50;100978.50;;;11.30;100.00
64095;BME280;50353;51.420;5.682;2023-12-28T11:28:16;100978.22;;;11.35;100.00
64095;BME280;50353;51.420;5.682;2023-12-28T11:30:42;100963.56;;;11.43;100.00
64095;BME280;50353;51.420;5.682;2023-12-28T11:33:10;100975.84;;;11.30;100.00
64095;BME280;50353;51.420;5.682;2023-12-28T11:35:39;100965.47;;;11.27;100.00
64095;BME280;50353;51.420;5.682;2023-12-28T11:38:10;100960.53;;;11.21;100.00
64095;BME280;50353;51.420;5.682;2023-12-28T11:40:44;100961.31;;;11.23;100.00
64095;BME280;50353;51.420;5.682;2023-12-28T11:43:17;100956.78;;;11.25;100.00
64095;BME280;50353;51.420;5.682;2023-12-28T11:46:10;100945.34;;;11.39;100.00
64095;BME280;50353;51.420;5.682;2023-12-28T11:48:37;100945.59;;;11.34;100.00
64095;BME280;50353;51.420;5.682;2023-12-28T11:51:02;100943.06;;;11.32;100.00
64095;BME280;50353;51.420;5.682;2023-12-28T11:53:28;100946.19;;;11.54;100.00
64095;BME280;50353;51.420;5.682;2023-12-28T11:55:59;100933.72;;;11.41;100.00
64095;BME280;50353;51.420;5.682;2023-12-28T11:58:27;100930.88;;;11.44;100.00
64095;BME280;50353;51.420;5.682;2023-12-28T12:00:53;100932.38;;;11.34;100.00
64095;BME280;50353;51.420;5.682;2023-12-28T12:03:18;100926.63;;;11.56;100.00
64095;BME280;50353;51.420;5.682;2023-12-28T12:05:45;100928.69;;;11.37;100.00
64095;BME280;50353;51.420;5.682;2023-12-28T12:08:10;100936.63;;;11.37;100.00
64095;BME280;50353;51.420;5.682;2023-12-28T12:10:40;100905.75;;;11.37;100.00
64095;BME280;50353;51.420;5.682;2023-12-28T12:13:05;100922.25;;;11.41;100.00
64095;BME280;50353;51.420;5.682;2023-12-28T12:15:31;100925.84;;;11.40;100.00
64095;BME280;50353;51.420;5.682;2023-12-28T12:17:56;100919.59;;;11.41;100.00
64095;BME280;50353;51.420;5.682;2023-12-28T12:20:22;100915.75;;;11.32;100.00
64095;BME280;50353;51.420;5.682;2023-12-28T12:22:48;100913.47;;;11.40;100.00
64095;BME280;50353;51.420;5.682;2023-12-28T12:25:14;100921.03;;;11.32;100.00
64095;BME280;50353;51.420;5.682;2023-12-28T12:27:40;100909.16;;;11.25;100.00
64095;BME280;50353;51.420;5.682;2023-12-28T12:30:06;100902.72;;;11.29;100.00
64095;BME280;50353;51.420;5.682;2023-12-28T12:32:32;100905.53;;;11.40;100.00
64095;BME280;50353;51.420;5.682;2023-12-28T12:34:58;100895.78;;;11.41;100.00
64095;BME280;50353;51.420;5.682;2023-12-28T12:37:23;100894.75;;;11.58;100.00
64095;BME280;50353;51.420;5.682;2023-12-28T12:39:49;100895.63;;;11.44;100.00